Portada
METAR-TAF:

METAR-TAF

Aeropuertos :

Aeropuerto Internacional de Basora

Basora, Iraq

latitud: 30-32-56N, longitud: 47-39-45E, altitud: 1 m

Observación

El informe se hizo hace 49 minutos, a las 22:00 UTC
Viento 7 kt del oeste-noroeste
Temperatura 30°C
Humedad 49%
Presión 1003 hPa
Visibilidad 10 km o más
sin nubes por debajo de 1500 m y sin presencia de cumulonimbus.

METAR: ORMM 282200Z 29007KT CAVOK 30/18 Q1003 NOSIG

Hora: 01:49 (22:49 UTC)

Pronóstico

El informe se hizo hace 6 horas y 49 minutos, a las 16:00 UTC
Pronóstico válido del 28 a las 18 UTC al 29 a las 18 UTC
Visibilidad: 8000 m

TAF: ORMM 281600Z 2818/2918 2908KT 8000 NSC

Observaciones y pronósticos meteorológicos de más de 4000 aeropuertos (mensajes METAR y TAF).

Los puntos amarillos y rojos representan las estaciones disponibles.

Ponga el ratón en el punto deseado para ver el nombre de la estación.

Haga clic para ver las observaciones y los pronósticos meteorológicos.

Para cambiar el mapa : haga clic en los botones verdes con una cruz de color negro para hacer un zoom, en el botón verde con un guión para alejar o en las flechas verdes para mapas adyacentes.


METAR-TAF: